• Join FlightAware (Why Join?)
  • Login
  • US Flag 
09:01PM EDT


 

Airport Tracker/Info


-or-


 

Live Flight TrackerFlight Track Log ✈ ASQ5941 ✈ 07-Jul-2013 ✈ KAVP - KORD

Flight Track Log - Related Links

Times and Time Zones

All times are in EDT time to prevent confusion due to time zone crossing. See the ASQ5941 flight status page for this flight to view local times or setup timezone preferences in your user account.

Time Position Orientation Groundspeed Altitude Reporting Facility
EDT Latitude Longitude Course Direction KTS MPH feet Rate Location/Type
05:25PM 41.2567 -75.8022 307° West 211 243 4,500  Level New York Center
05:26PM 41.3833 -75.8786 270° West  Level FlightAware Approximate
05:26PM 41.3028 -75.8442 326° Northwest 241 277 6,300  Level New York Center
05:27PM 41.4408 -75.9648 304° West  Level FlightAware Approximate
05:27PM 41.3686 -75.8603 350° North 261 300 7,500  Level New York Center
05:28PM 41.4957 -76.0553 315° West  Level FlightAware Approximate
05:28PM 41.4453 -75.9158 331° Northwest 278 320 9,700  Level New York Center
05:29PM 41.5552 -76.1412 312° West  Level FlightAware Approximate
05:29PM 41.5039 -75.9564 333° Northwest 290 334 11,000  Level New York Center
05:30PM 41.6109 -76.2315 307° West  Level FlightAware Approximate
05:30PM 41.5908 -76.0158 333° Northwest 313 360 12,700  Level New York Center
05:31PM 41.6564 -76.0878 321° Northwest 319 367 14,200 1,560 Climbing New York Center
05:32PM 41.7253 -76.1764 316° Northwest 319 367 15,900 1,560 Climbing New York Center
05:33PM 41.7686 -76.2775 300° West 308 354 17,400 1,380 Climbing New York Center
05:34PM 41.8097 -76.3781 299° West 308 354 18,700 1,200 Climbing New York Center
05:35PM 41.8506 -76.4819 298° West 313 360 19,800 1,080 Climbing New York Center
05:36PM 41.8931 -76.5914 298° West 319 367 21,000 1,080 Climbing New York Center
05:37PM 41.9231 -76.7028 290° West 319 367 22,000 -240 Climbing New York Center
05:40PM 42.0344 -77.1750 288° West 429 494 20,000 -480 Descending Cleveland Center
05:41PM 42.0681 -77.3217 287° West 429 494 20,000  Level Cleveland Center
05:42PM 42.1019 -77.4906 285° West 429 494 20,000  Level Cleveland Center
05:43PM 42.1258 -77.6128 285° West 429 494 20,000  Level Cleveland Center
05:44PM 42.1717 -77.7786 291° West 458 527 20,000  Level Cleveland Center
05:45PM 42.1836 -77.9211 277° West 407 468 20,000  Level Cleveland Center
05:46PM 42.1514 -78.0653 253° West 401 461 20,000 300 Level Cleveland Center
05:47PM 42.1336 -78.2117 261° West 401 461 20,700 900 Climbing Cleveland Center
05:48PM 42.1175 -78.3494 261° West 389 448 21,900 1,080 Climbing Cleveland Center
05:49PM 42.1014 -78.4842 261° West 384 442 22,900 960 Climbing Cleveland Center
05:50PM 42.0872 -78.6219 262° West 378 435 23,900 960 Climbing Cleveland Center
05:51PM 42.0706 -78.7567 261° West 373 429 24,900 960 Climbing Cleveland Center
05:52PM 42.0581 -78.8911 263° West 368 423 25,900 960 Climbing Cleveland Center
05:53PM 42.0347 -79.0064 255° West 368 423 26,900 960 Climbing Cleveland Center
05:54PM 42.0050 -79.1331 253° West 362 417 27,900 900 Climbing Cleveland Center
05:55PM 41.9753 -79.2564 252° West 362 417 28,800 840 Climbing Cleveland Center
05:56PM 41.9453 -79.3828 252° West 357 411 29,600 780 Climbing Cleveland Center
05:57PM 41.9258 -79.5142 259° West 357 411 30,400 780 Climbing Cleveland Center
05:58PM 41.9083 -79.6486 260° West 362 417 31,200 780 Climbing Cleveland Center
05:59PM 41.8967 -79.7825 263° West 367 422 32,000 360 Climbing Cleveland Center
06:00PM 41.8789 -79.9250 261° West 378 435 32,000  Level Cleveland Center
06:01PM 41.8608 -80.0758 261° West 406 467 32,000  Level Cleveland Center
06:02PM 41.8406 -80.2431 261° West 414 476 32,000  Level Cleveland Center
06:03PM 41.8244 -80.4019 262° West 424 488 32,000  Level Cleveland Center
06:04PM 41.8036 -80.5581 260° West 431 496 32,000  Level Cleveland Center
06:05PM 41.7847 -80.7114 261° West 431 496 32,000  Level Cleveland Center
06:06PM 41.7658 -80.8700 261° West 430 495 32,000  Level Cleveland Center
06:07PM 41.7464 -81.0283 261° West 430 495 32,000  Level Cleveland Center
06:08PM 41.7269 -81.1897 261° West 430 495 32,000  Level Cleveland Center
06:09PM 41.6969 -81.3367 255° West 426 490 32,000  Level Cleveland Center
06:10PM 41.6481 -81.4778 245° Southwest 420 483 32,000  Level Cleveland Center
06:11PM 41.5989 -81.6217 245° Southwest 425 489 32,100 480 Climbing Cleveland Center
06:12PM 41.5786 -81.7794 260° West 430 495 33,000 420 Climbing Cleveland Center
06:13PM 41.5622 -81.9372 262° West 435 501 33,000  Level Cleveland Center
06:14PM 41.5433 -82.1006 261° West 441 507 33,000 360 Level Cleveland Center
06:15PM 41.5244 -82.2583 261° West 446 513 33,800 480 Climbing Cleveland Center
06:16PM 41.5075 -82.4186 262° West 446 513 34,000 60 Climbing Cleveland Center
06:17PM 41.4883 -82.5622 260° West 446 513 34,000  Level Cleveland Center
06:18PM 41.4708 -82.7308 262° West 446 513 34,000  Level Cleveland Center
06:19PM 41.4508 -82.8908 261° West 446 513 34,000  Level Cleveland Center
06:20PM 41.4308 -83.0536 261° West 446 513 34,000  Level Cleveland Center
06:21PM 41.4103 -83.2300 261° West 446 513 34,000  Level Cleveland Center
06:22PM 41.3897 -83.3925 260° West 446 513 34,000  Level Cleveland Center
06:23PM 41.3708 -83.5578 261° West 446 513 34,000  Level Cleveland Center
06:24PM 41.3500 -83.7200 260° West 446 513 34,000  Level Cleveland Center
06:25PM 41.3308 -83.8794 261° West 446 513 34,000  Level Cleveland Center
06:25PM 41.3233 -83.9611 263° West 440 506 34,000  Level Chicago Center
06:26PM 41.3069 -84.1153 262° West 438 504 34,000  Level Chicago Center
06:27PM 41.3419 -84.2667 287° West 430 495 34,000  Level Chicago Center
06:29PM 41.3761 -84.4172 287° West 427 491 34,000  Level Chicago Center
06:30PM 41.4072 -84.5678 285° West 424 488 34,000  Level Chicago Center
06:31PM 41.4422 -84.7475 285° West 420 483 34,000 -180 Level Chicago Center
06:32PM 41.4717 -84.8978 285° West 420 483 33,700 -660 Descending Chicago Center
06:33PM 41.4469 -85.0600 259° West 444 511 32,700 -1,020 Descending Chicago Center
06:34PM 41.4100 -85.2231 253° West 453 521 31,700 -960 Descending Chicago Center
06:35PM 41.3736 -85.3878 254° West 456 525 30,700 -1,740 Descending Chicago Center
06:36PM 41.3364 -85.5544 253° West 463 533 28,100 -2,400 Descending Chicago Center
06:37PM 41.2994 -85.7203 254° West 464 534 25,800 -1,500 Descending Chicago Center
06:38PM 41.2825 -85.8856 262° West 451 519 25,000 -540 Descending Chicago Center
06:39PM 41.3472 -86.0608 296° West 437 503 24,700 -1,560 Descending Chicago Center
06:40PM 41.4075 -86.2019 300° West 437 503 21,800 -2,940 Descending Chicago Center
06:41PM 41.4639 -86.3356 299° West 416 479 18,700 -2,820 Descending Chicago Center
06:42PM 41.5181 -86.4628 300° West 398 458 16,000 -2,580 Descending Chicago Center
06:43PM 41.5694 -86.5850 299° West 381 438 13,400 -1,920 Descending Chicago Center
06:44PM 41.6244 -86.7150 300° West 363 418 12,100 -660 Descending Chicago Center
06:45PM 41.6917 -86.7942 319° Northwest 342 394 12,100  Level Chicago Center
06:46PM 41.7850 -86.8108 352° North 345 397 12,100 -60 Level Chicago Center
06:47PM 41.8906 -86.8589 341° North 342 394 12,000 -720 Descending Chicago Center
06:48PM 41.9319 -86.9739 296° West 346 398 10,700 -960 Descending Chicago Center
06:49PM 41.9714 -87.0925 294° West 351 404 10,000 -420 Descending Chicago Center
06:50PM 41.9828 -87.2142 277° West 335 386 9,900 -780 Descending Chicago Center
06:51PM 41.9833 -87.3183 270° West 289 333 8,400 -1,440 Descending Chicago Center
06:52PM 41.9831 -87.4378 270° West 271 312 7,000 -1,080 Descending Chicago Center
06:53PM 41.9842 -87.5261 271° West 241 277 6,200 -1,140 Descending Chicago Center
06:54PM 41.9833 -87.6053 269° West 219 252 4,700 -1,260 Descending Chicago Center
06:55PM 41.9831 -87.6769 270° West 204 235 3,600 -960 Descending Chicago Center
06:56PM 41.9844 -87.7386 272° West 186 214 2,800 -780 Descending Chicago Center